createdAt,value
2022-11-05T00:01:01.791Z,99894.97
2022-11-05T00:03:47.455Z,99889.72
2022-11-05T00:06:33.891Z,99886.25
2022-11-05T00:09:20.065Z,99883.72
2022-11-05T00:12:06.297Z,99886.50
2022-11-05T00:14:52.676Z,99898.03
2022-11-05T00:17:20.058Z,99886.63
2022-11-05T00:19:47.547Z,99889.16
2022-11-05T00:22:33.391Z,99899.69
2022-11-05T00:25:19.136Z,99904.03
2022-11-05T00:27:53.825Z,99894.63
2022-11-05T00:30:25.932Z,99889.41
2022-11-05T00:32:54.174Z,99884.06
2022-11-05T00:35:22.622Z,99889.34
2022-11-05T00:37:50.730Z,99890.09
2022-11-05T00:40:18.261Z,99886.66
2022-11-05T00:43:04.646Z,99885.72
2022-11-05T00:45:32.332Z,99891.81
2022-11-05T00:48:18.541Z,99894.50
2022-11-05T00:50:46.446Z,99891.78
2022-11-05T00:53:14.413Z,99896.97
2022-11-05T00:55:44.835Z,99892.53
2022-11-05T00:58:14.816Z,99899.47
2022-11-05T01:00:45.474Z,99897.75
2022-11-05T01:03:15.220Z,99899.53
2022-11-05T01:05:46.683Z,99905.63
2022-11-05T01:08:16.622Z,99902.19
2022-11-05T01:10:46.712Z,99902.22
2022-11-05T01:13:18.015Z,99900.44
2022-11-05T01:15:46.631Z,99908.31
2022-11-05T01:18:14.421Z,99910.03
2022-11-05T01:20:42.148Z,99900.28
2022-11-05T01:23:13.585Z,99909.88
2022-11-05T01:25:52.080Z,99920.44
2022-11-05T01:29:33.021Z,99897.78
2022-11-05T01:32:45.723Z,99916.22
2022-11-05T01:35:23.934Z,99898.03
2022-11-05T01:38:06.545Z,99907.59
2022-11-05T01:40:45.287Z,99923.31
2022-11-05T01:48:17.598Z,99920.81
2022-11-05T01:51:07.050Z,99925.16
2022-11-05T01:54:53.277Z,99937.13
2022-11-05T01:57:32.487Z,99936.44
2022-11-05T02:00:08.130Z,99939.03
2022-11-05T02:03:28.160Z,99949.72
2022-11-05T02:07:03.685Z,99954.00
2022-11-05T02:14:38.954Z,99949.72
2022-11-05T02:18:22.722Z,99953.97
2022-11-05T02:22:28.905Z,99941.78
2022-11-05T02:25:11.958Z,99955.78
2022-11-05T02:29:05.845Z,99950.41
2022-11-05T02:36:35.668Z,99962.56
2022-11-05T02:39:53.950Z,99964.31
2022-11-05T02:42:42.352Z,99966.78
2022-11-05T02:55:11.095Z,99974.63
2022-11-05T02:58:06.582Z,99973.78
2022-11-05T03:00:44.132Z,99992.91
2022-11-05T03:08:21.756Z,99996.97
2022-11-05T03:11:08.510Z,99990.91
2022-11-05T03:14:59.257Z,100002.97
2022-11-05T03:18:59.459Z,99989.09
2022-11-05T03:21:21.003Z,100002.19
2022-11-05T03:24:14.345Z,99997.03
2022-11-05T03:27:29.875Z,99998.81
2022-11-05T03:31:02.350Z,100019.06
2022-11-05T03:33:43.249Z,100022.03
2022-11-05T03:36:45.982Z,100026.28
2022-11-05T03:39:34.046Z,100027.09
2022-11-05T03:42:17.758Z,100032.22
2022-11-05T03:44:58.484Z,100027.84
2022-11-05T03:48:14.547Z,100029.44
2022-11-05T03:51:05.297Z,100045.06
2022-11-05T03:54:15.837Z,100046.09
2022-11-05T03:57:33.191Z,100040.13
2022-11-05T04:00:56.325Z,100028.84
2022-11-05T04:04:39.733Z,100045.38
2022-11-05T04:07:27.715Z,100044.47
2022-11-05T04:18:40.706Z,100049.78
2022-11-05T04:22:25.948Z,100050.75
2022-11-05T04:25:59.275Z,100047.03
2022-11-05T04:28:19.708Z,100041.72
2022-11-05T04:30:56.520Z,100047.81
2022-11-05T04:33:51.247Z,100056.66
2022-11-05T04:40:57.499Z,100052.44
2022-11-05T04:43:26.495Z,100059.47
2022-11-05T04:45:57.735Z,100055.91
2022-11-05T04:48:30.379Z,100052.53
2022-11-05T04:51:33.021Z,100061.31
2022-11-05T04:54:00.849Z,100060.34
2022-11-05T04:57:43.892Z,100064.66
2022-11-05T05:01:02.912Z,100060.41
2022-11-05T05:04:26.465Z,100065.66
2022-11-05T05:06:56.502Z,100070.97
2022-11-05T05:10:41.282Z,100075.31
2022-11-05T05:13:14.650Z,100078.91
2022-11-05T05:15:45.352Z,100078.03
2022-11-05T05:18:14.718Z,100079.78
2022-11-05T05:21:05.762Z,100090.22
2022-11-05T05:23:36.945Z,100099.75
2022-11-05T05:26:04.639Z,100103.31
2022-11-05T05:29:10.624Z,100095.47
2022-11-05T05:35:01.794Z,100105.91
2022-11-05T05:37:29.425Z,100110.25
2022-11-05T05:40:03.669Z,100115.50
2022-11-05T05:43:44.384Z,100121.63
2022-11-05T05:46:15.110Z,100114.63
2022-11-05T05:48:51.307Z,100132.94
2022-11-05T05:51:21.348Z,100123.38
2022-11-05T05:53:55.784Z,100132.09
2022-11-05T05:56:23.428Z,100137.31
2022-11-05T05:59:57.689Z,100135.56
2022-11-05T06:02:51.614Z,100146.03
2022-11-05T06:05:23.090Z,100132.06
2022-11-05T06:07:57.728Z,100131.22
2022-11-05T06:15:25.793Z,100152.13
2022-11-05T06:17:49.660Z,100145.16
2022-11-05T06:20:19.665Z,100145.16
2022-11-05T06:22:56.952Z,100146.91
2022-11-05T06:25:25.605Z,100146.00
2022-11-05T06:28:21.547Z,100166.06
2022-11-05T06:30:52.183Z,100155.63
2022-11-05T06:33:51.217Z,100170.44
2022-11-05T06:36:20.074Z,100157.34
2022-11-05T06:38:48.523Z,100169.56
2022-11-05T06:41:18.901Z,100167.81
2022-11-05T06:43:46.589Z,100167.84
2022-11-05T06:46:17.943Z,100168.72
2022-11-05T06:49:05.508Z,100168.66
2022-11-05T06:52:06.463Z,100180.91
2022-11-05T07:02:41.245Z,100220.16
2022-11-05T07:17:19.958Z,100230.53
2022-11-05T07:20:36.753Z,100227.00
2022-11-05T07:23:34.215Z,100224.28
2022-11-05T07:29:49.079Z,100252.09
2022-11-05T07:32:27.929Z,100247.66
2022-11-05T07:35:55.507Z,100259.56
2022-11-05T07:38:46.242Z,100267.00
2022-11-05T07:41:13.908Z,100257.00
2022-11-05T07:43:48.322Z,100253.31
2022-11-05T07:46:55.792Z,100270.56
2022-11-05T07:49:24.015Z,100274.97
2022-11-05T07:51:58.260Z,100283.88
2022-11-05T07:54:31.394Z,100286.00
2022-11-05T07:56:59.152Z,100300.06
2022-11-05T07:59:39.224Z,100287.91
2022-11-05T08:07:27.982Z,100312.81
2022-11-05T08:10:06.397Z,100315.72
2022-11-05T08:13:12.207Z,100325.16
2022-11-05T08:16:16.650Z,100325.41
2022-11-05T08:19:13.817Z,100325.34
2022-11-05T08:22:07.922Z,100328.75
2022-11-05T08:24:49.910Z,100333.34
2022-11-05T08:27:20.381Z,100333.59
2022-11-05T08:29:48.114Z,100338.69
2022-11-05T08:32:17.937Z,100341.13
2022-11-05T08:38:42.144Z,100337.81
2022-11-05T08:41:13.305Z,100345.97
2022-11-05T08:45:10.133Z,100347.06
2022-11-05T08:48:18.171Z,100363.47
2022-11-05T08:51:09.297Z,100338.16
2022-11-05T08:53:57.141Z,100361.75
2022-11-05T08:56:24.766Z,100353.97
2022-11-05T08:58:54.026Z,100356.84
2022-11-05T09:04:56.163Z,100370.06
2022-11-05T09:11:18.396Z,100369.31
2022-11-05T09:15:43.445Z,100381.19
2022-11-05T09:18:56.690Z,100381.66
2022-11-05T09:21:55.427Z,100394.81
2022-11-05T09:24:42.975Z,100385.97
2022-11-05T09:28:43.115Z,100398.94
2022-11-05T09:31:24.892Z,100381.88
2022-11-05T09:35:14.476Z,100392.72
2022-11-05T09:38:22.748Z,100394.13
2022-11-05T09:41:20.844Z,100394.59
2022-11-05T09:43:55.509Z,100393.75
2022-11-05T09:46:28.458Z,100391.50
2022-11-05T09:49:06.258Z,100396.25
2022-11-05T09:51:42.806Z,100404.50
2022-11-05T09:54:14.894Z,100392.56
2022-11-05T09:56:42.596Z,100391.94
2022-11-05T09:59:18.971Z,100400.44
2022-11-05T10:02:02.387Z,100402.41
2022-11-05T10:04:34.058Z,100399.09
2022-11-05T10:07:04.499Z,100403.44
2022-11-05T10:09:47.716Z,100406.22
2022-11-05T10:12:17.720Z,100408.78
2022-11-05T10:14:50.239Z,100409.34
2022-11-05T10:17:27.502Z,100419.31
2022-11-05T10:20:00.738Z,100417.66
2022-11-05T10:22:28.508Z,100415.75
2022-11-05T10:26:19.319Z,100416.84
2022-11-05T10:29:13.990Z,100403.16
2022-11-05T10:33:58.478Z,100410.56
2022-11-05T10:36:08.018Z,100409.72
2022-11-05T10:39:33.455Z,100424.06
2022-11-05T10:45:10.026Z,100421.56
2022-11-05T10:56:39.745Z,100411.56
2022-11-05T10:59:21.533Z,100415.28
2022-11-05T11:02:00.316Z,100409.72
2022-11-05T11:04:37.480Z,100414.03
2022-11-05T11:07:05.769Z,100401.53
2022-11-05T11:09:36.575Z,100407.28
2022-11-05T11:12:06.113Z,100417.81
2022-11-05T11:14:35.226Z,100416.59
2022-11-05T11:17:28.884Z,100419.41
2022-11-05T11:20:18.006Z,100423.59
2022-11-05T11:22:59.674Z,100406.78
2022-11-05T11:25:35.982Z,100407.31
2022-11-05T11:28:05.794Z,100416.41
2022-11-05T11:30:35.180Z,100419.25
2022-11-05T11:33:09.206Z,100411.69
2022-11-05T11:35:38.938Z,100416.31
2022-11-05T11:38:07.402Z,100423.41
2022-11-05T11:40:37.997Z,100424.06
2022-11-05T11:43:16.399Z,100413.38
2022-11-05T11:45:48.268Z,100409.56
2022-11-05T11:48:21.609Z,100408.19
2022-11-05T11:50:53.439Z,100406.38
2022-11-05T11:53:21.020Z,100416.03
2022-11-05T11:56:05.569Z,100412.63
2022-11-05T11:58:47.220Z,100404.91
2022-11-05T12:01:48.054Z,100419.94
2022-11-05T12:05:05.722Z,100414.28
2022-11-05T12:07:48.863Z,100413.97
2022-11-05T12:10:41.217Z,100423.41
2022-11-05T12:13:20.909Z,100421.69
2022-11-05T12:16:25.613Z,100419.41
2022-11-05T12:19:44.175Z,100404.97
2022-11-05T12:22:29.774Z,100402.25
2022-11-05T12:25:08.272Z,100422.84
2022-11-05T12:27:44.671Z,100402.38
2022-11-05T12:30:16.312Z,100408.91
2022-11-05T12:33:02.214Z,100405.19
2022-11-05T12:35:46.985Z,100415.34
2022-11-05T12:38:31.922Z,100407.91
2022-11-05T12:41:18.322Z,100413.03
2022-11-05T12:43:51.616Z,100418.28
2022-11-05T12:46:28.044Z,100401.16
2022-11-05T12:49:30.947Z,100398.91
2022-11-05T12:52:07.497Z,100398.78
2022-11-05T12:54:59.249Z,100405.31
2022-11-05T12:57:42.380Z,100397.31
2022-11-05T13:00:28.053Z,100397.53
2022-11-05T13:03:17.358Z,100410.72
2022-11-05T13:06:06.273Z,100401.78
2022-11-05T13:08:52.660Z,100410.44
2022-11-05T13:11:23.938Z,100401.84
2022-11-05T13:14:06.525Z,100412.06
2022-11-05T13:16:47.826Z,100412.69
2022-11-05T13:19:30.111Z,100407.84
2022-11-05T13:22:38.107Z,100411.25
2022-11-05T13:25:11.951Z,100410.63
2022-11-05T13:28:23.789Z,100402.38
2022-11-05T13:30:55.966Z,100407.22
2022-11-05T13:33:32.393Z,100398.53
2022-11-05T13:36:28.563Z,100399.88
2022-11-05T13:39:35.231Z,100401.31
2022-11-05T13:42:02.518Z,100403.97
2022-11-05T13:44:46.087Z,100412.38
2022-11-05T13:47:52.414Z,100402.00
2022-11-05T13:50:25.818Z,100396.19
2022-11-05T13:53:26.860Z,100396.06
2022-11-05T13:55:57.814Z,100404.06
2022-11-05T13:58:37.269Z,100402.75
2022-11-05T14:01:13.923Z,100410.47
2022-11-05T14:03:48.419Z,100410.13
2022-11-05T14:06:31.110Z,100415.59
2022-11-05T14:09:07.597Z,100414.72
2022-11-05T14:11:56.276Z,100412.66
2022-11-05T14:14:33.875Z,100422.59
2022-11-05T14:17:22.062Z,100419.94
2022-11-05T14:24:04.051Z,100416.78
2022-11-05T14:27:49.532Z,100423.38
2022-11-05T14:30:52.683Z,100423.59
2022-11-05T14:33:37.738Z,100418.25
2022-11-05T14:36:49.527Z,100416.75
2022-11-05T14:40:17.629Z,100418.78
2022-11-05T14:43:40.525Z,100433.50
2022-11-05T14:46:59.321Z,100437.34
2022-11-05T14:49:38.502Z,100419.41
2022-11-05T14:58:28.310Z,100444.56
2022-11-05T15:01:52.728Z,100438.59
2022-11-05T15:08:37.574Z,100445.81
2022-11-05T15:12:25.254Z,100441.63
2022-11-05T15:16:24.681Z,100454.00
2022-11-05T15:23:10.118Z,100456.25
2022-11-05T15:33:57.675Z,100457.66
2022-11-05T15:42:15.643Z,100454.94
2022-11-05T15:45:56.603Z,100459.25
2022-11-05T15:49:13.099Z,100466.84
2022-11-05T16:04:24.030Z,100471.41
2022-11-05T16:08:01.919Z,100474.81
2022-11-05T16:19:16.997Z,100490.84
2022-11-05T16:22:20.597Z,100464.88
2022-11-05T16:29:02.887Z,100493.72
2022-11-05T16:32:53.328Z,100498.84
2022-11-05T16:41:16.381Z,100497.41
2022-11-05T16:45:43.576Z,100502.69
2022-11-05T16:49:53.546Z,100503.81
2022-11-05T16:52:05.931Z,100511.81
2022-11-05T16:55:56.242Z,100527.97
2022-11-05T16:58:29.723Z,100519.84
2022-11-05T17:01:07.406Z,100529.03
2022-11-05T17:03:36.247Z,100516.00
2022-11-05T17:06:04.024Z,100522.03
2022-11-05T17:08:31.499Z,100524.72
2022-11-05T17:10:59.092Z,100520.25
2022-11-05T17:13:26.487Z,100527.41
2022-11-05T17:15:54.043Z,100533.38
2022-11-05T17:18:21.956Z,100539.44
2022-11-05T17:20:55.285Z,100549.16
2022-11-05T17:23:26.787Z,100538.63
2022-11-05T17:25:59.969Z,100550.03
2022-11-05T17:28:29.135Z,100557.94
2022-11-05T17:31:00.106Z,100569.31
2022-11-05T17:33:28.408Z,100577.22
2022-11-05T17:35:56.204Z,100572.81
2022-11-05T17:38:25.902Z,100566.91
2022-11-05T17:40:54.101Z,100571.34
2022-11-05T17:43:21.766Z,100575.91
2022-11-05T17:45:52.117Z,100577.63
2022-11-05T17:48:20.792Z,100577.09
2022-11-05T17:50:50.152Z,100587.53
2022-11-05T17:53:19.024Z,100573.59
2022-11-05T17:55:47.593Z,100586.97
2022-11-05T17:58:15.315Z,100593.06
2022-11-05T18:00:47.901Z,100604.63
2022-11-05T18:03:15.799Z,100592.41
2022-11-05T18:05:43.582Z,100598.63
2022-11-05T18:08:12.515Z,100598.50
2022-11-05T18:10:40.711Z,100601.16
2022-11-05T18:13:08.397Z,100611.84
2022-11-05T18:15:40.851Z,100602.25
2022-11-05T18:18:08.974Z,100616.31
2022-11-05T18:20:36.592Z,100607.47
2022-11-05T18:23:04.576Z,100606.72
2022-11-05T18:25:32.014Z,100622.38
2022-11-05T18:27:59.413Z,100627.66
2022-11-05T18:30:26.877Z,100610.97
2022-11-05T18:32:54.354Z,100617.19
2022-11-05T18:35:21.830Z,100616.38
2022-11-05T18:37:49.288Z,100618.16
2022-11-05T18:40:16.697Z,100622.44
2022-11-05T18:42:44.161Z,100630.34
2022-11-05T18:45:11.893Z,100624.25
2022-11-05T18:47:39.434Z,100626.88
2022-11-05T18:50:09.313Z,100625.19
2022-11-05T18:52:37.001Z,100633.13
2022-11-05T18:55:04.878Z,100621.88
2022-11-05T18:57:34.055Z,100634.22
2022-11-05T19:00:01.964Z,100631.59
2022-11-05T19:02:29.580Z,100633.41
2022-11-05T19:07:44.542Z,100655.38
2022-11-05T19:10:11.978Z,100663.34
2022-11-05T19:12:39.479Z,100654.63
2022-11-05T19:15:09.733Z,100659.88
2022-11-05T19:17:43.024Z,100659.94
2022-11-05T19:20:11.144Z,100665.25
2022-11-05T19:22:38.759Z,100653.06
2022-11-05T19:25:06.844Z,100669.66
2022-11-05T19:27:36.119Z,100665.31
2022-11-05T19:30:04.996Z,100674.97
2022-11-05T19:32:32.576Z,100675.84
2022-11-05T19:35:00.125Z,100682.84
2022-11-05T19:37:27.559Z,100681.00
2022-11-05T19:39:55.013Z,100686.31
2022-11-05T19:42:22.453Z,100688.91
2022-11-05T19:44:50.031Z,100685.44
2022-11-05T19:47:17.611Z,100699.50
2022-11-05T19:49:45.084Z,100690.81
2022-11-05T19:52:12.579Z,100694.34
2022-11-05T19:54:40.122Z,100703.19
2022-11-05T19:57:07.639Z,100710.22
2022-11-05T19:59:35.108Z,100706.75
2022-11-05T20:02:02.624Z,100716.41
2022-11-05T20:04:30.157Z,100723.41
2022-11-05T20:06:57.941Z,100725.16
2022-11-05T20:09:25.409Z,100719.06
2022-11-05T20:11:54.646Z,100724.31
2022-11-05T20:14:23.651Z,100724.28
2022-11-05T20:16:51.304Z,100723.44
2022-11-05T20:19:20.798Z,100731.31
2022-11-05T20:21:48.467Z,100719.06
2022-11-05T20:24:23.564Z,100726.03
2022-11-05T20:26:53.852Z,100710.28
2022-11-05T20:29:21.350Z,100712.94
2022-11-05T20:31:49.550Z,100718.19
2022-11-05T20:34:17.021Z,100726.94
2022-11-05T20:36:44.402Z,100726.94
2022-11-05T20:39:12.177Z,100734.78
2022-11-05T20:41:39.824Z,100744.41
2022-11-05T20:44:07.295Z,100751.38
2022-11-05T20:46:34.719Z,100746.94
2022-11-05T20:49:02.112Z,100752.16
2022-11-05T20:51:29.752Z,100758.28
2022-11-05T20:53:59.452Z,100761.81
2022-11-05T20:56:29.913Z,100764.31
2022-11-05T20:58:59.072Z,100767.00
2022-11-05T21:01:28.630Z,100759.16
2022-11-05T21:03:56.807Z,100767.97
2022-11-05T21:06:24.203Z,100762.72
2022-11-05T21:08:52.366Z,100768.84
2022-11-05T21:11:20.600Z,100764.47
2022-11-05T21:13:48.679Z,100767.97
2022-11-05T21:16:18.584Z,100767.97
2022-11-05T21:18:47.016Z,100765.28
2022-11-05T21:21:17.196Z,100759.97
2022-11-05T21:23:45.047Z,100776.56
2022-11-05T21:26:13.980Z,100769.53
2022-11-05T21:28:41.840Z,100782.63
2022-11-05T21:31:09.866Z,100780.94
2022-11-05T21:33:37.685Z,100786.19
2022-11-05T21:36:10.268Z,100793.22
2022-11-05T21:38:38.388Z,100782.72
2022-11-05T21:41:07.728Z,100784.47
2022-11-05T21:43:35.814Z,100797.63
2022-11-05T21:46:04.886Z,100803.75
2022-11-05T21:48:32.885Z,100793.22
2022-11-05T21:51:18.569Z,100790.59
2022-11-05T21:54:04.922Z,100792.34
2022-11-05T21:56:51.383Z,100812.53
2022-11-05T21:59:40.029Z,100813.41
2022-11-05T22:02:09.517Z,100806.34
2022-11-05T22:04:39.787Z,100813.38
2022-11-05T22:07:09.658Z,100803.69
2022-11-05T22:09:37.371Z,100809.75
2022-11-05T22:12:05.703Z,100811.41
2022-11-05T22:14:34.026Z,100808.78
2022-11-05T22:17:01.566Z,100812.31
2022-11-05T22:19:30.673Z,100807.03
2022-11-05T22:21:58.101Z,100808.75
2022-11-05T22:24:28.075Z,100811.41
2022-11-05T22:26:55.738Z,100806.13
2022-11-05T22:29:23.129Z,100806.13
2022-11-05T22:31:50.660Z,100809.59
2022-11-05T22:34:18.617Z,100806.91
2022-11-05T22:36:46.550Z,100808.56
2022-11-05T22:39:14.578Z,100806.75
2022-11-05T22:41:43.146Z,100805.91
